sensor_id;sensor_type;location;lat;lon;timestamp;pressure;altitude;pressure_sealevel;temperature;humidity
73024;BME280;61199;47.526;8.538;2022-12-07T00:01:41;96521.16;;;5.25;71.07
73024;BME280;61199;47.526;8.538;2022-12-07T00:04:10;96524.22;;;5.05;71.78
73024;BME280;61199;47.526;8.538;2022-12-07T00:06:40;96524.53;;;4.60;73.30
73024;BME280;61199;47.526;8.538;2022-12-07T00:09:09;96516.97;;;4.84;72.97
73024;BME280;61199;47.526;8.538;2022-12-07T00:11:36;96519.06;;;4.91;73.07
73024;BME280;61199;47.526;8.538;2022-12-07T00:14:06;96517.41;;;5.17;72.15
73024;BME280;61199;47.526;8.538;2022-12-07T00:16:33;96514.16;;;5.13;72.27
73024;BME280;61199;47.526;8.538;2022-12-07T00:19:00;96524.13;;;5.19;71.91
73024;BME280;61199;47.526;8.538;2022-12-07T00:21:29;96518.50;;;5.13;71.88
73024;BME280;61199;47.526;8.538;2022-12-07T00:23:56;96518.88;;;4.94;72.00
73024;BME280;61199;47.526;8.538;2022-12-07T00:26:34;96519.56;;;4.84;73.02
73024;BME280;61199;47.526;8.538;2022-12-07T00:29:06;96511.44;;;5.02;72.55
73024;BME280;61199;47.526;8.538;2022-12-07T00:31:36;96509.41;;;5.20;71.88
73024;BME280;61199;47.526;8.538;2022-12-07T00:34:06;96513.56;;;5.22;71.93
73024;BME280;61199;47.526;8.538;2022-12-07T00:36:33;96512.75;;;5.34;71.24
73024;BME280;61199;47.526;8.538;2022-12-07T00:39:00;96507.53;;;5.22;71.60
73024;BME280;61199;47.526;8.538;2022-12-07T00:41:28;96505.47;;;5.27;71.47
73024;BME280;61199;47.526;8.538;2022-12-07T00:43:54;96504.03;;;5.35;70.97
73024;BME280;61199;47.526;8.538;2022-12-07T00:46:22;96510.50;;;5.42;70.89
73024;BME280;61199;47.526;8.538;2022-12-07T00:48:49;96507.69;;;5.45;70.67
73024;BME280;61199;47.526;8.538;2022-12-07T00:51:18;96507.59;;;5.47;70.57
73024;BME280;61199;47.526;8.538;2022-12-07T00:53:45;96493.75;;;5.46;70.75
73024;BME280;61199;47.526;8.538;2022-12-07T00:56:14;96498.13;;;5.46;70.18
73024;BME280;61199;47.526;8.538;2022-12-07T00:58:41;96499.50;;;5.51;70.34
73024;BME280;61199;47.526;8.538;2022-12-07T01:01:08;96494.78;;;5.31;70.74
73024;BME280;61199;47.526;8.538;2022-12-07T01:03:35;96500.09;;;5.42;71.05
73024;BME280;61199;47.526;8.538;2022-12-07T01:06:03;96506.03;;;5.57;70.50
73024;BME280;61199;47.526;8.538;2022-12-07T01:08:30;96502.78;;;5.41;70.61
73024;BME280;61199;47.526;8.538;2022-12-07T01:11:08;96497.19;;;5.47;70.47
73024;BME280;61199;47.526;8.538;2022-12-07T01:13:35;96502.81;;;5.53;70.44
73024;BME280;61199;47.526;8.538;2022-12-07T01:16:05;96498.03;;;5.59;70.32
73024;BME280;61199;47.526;8.538;2022-12-07T01:18:33;96494.72;;;5.57;70.13
73024;BME280;61199;47.526;8.538;2022-12-07T01:21:07;96496.59;;;5.68;70.53
73024;BME280;61199;47.526;8.538;2022-12-07T01:23:35;96501.97;;;5.65;70.20
73024;BME280;61199;47.526;8.538;2022-12-07T01:26:04;96500.75;;;5.70;70.17
73024;BME280;61199;47.526;8.538;2022-12-07T01:28:31;96499.91;;;5.70;70.02
73024;BME280;61199;47.526;8.538;2022-12-07T01:31:03;96492.13;;;5.70;70.28
73024;BME280;61199;47.526;8.538;2022-12-07T01:33:33;96498.84;;;5.35;71.04
73024;BME280;61199;47.526;8.538;2022-12-07T01:36:16;96499.19;;;5.04;72.47
73024;BME280;61199;47.526;8.538;2022-12-07T01:38:44;96507.31;;;5.12;72.53
73024;BME280;61199;47.526;8.538;2022-12-07T01:41:11;96503.41;;;4.93;73.14
73024;BME280;61199;47.526;8.538;2022-12-07T01:44:07;96510.50;;;4.77;73.77
73024;BME280;61199;47.526;8.538;2022-12-07T01:46:34;96507.84;;;4.64;74.08
73024;BME280;61199;47.526;8.538;2022-12-07T01:49:02;96512.16;;;4.37;75.98
73024;BME280;61199;47.526;8.538;2022-12-07T01:51:30;96509.41;;;4.40;76.24
73024;BME280;61199;47.526;8.538;2022-12-07T01:53:56;96502.44;;;4.41;76.02
73024;BME280;61199;47.526;8.538;2022-12-07T01:56:26;96502.84;;;4.35;76.07
73024;BME280;61199;47.526;8.538;2022-12-07T01:58:54;96505.50;;;4.33;76.22
73024;BME280;61199;47.526;8.538;2022-12-07T02:01:21;96496.44;;;4.26;76.97
73024;BME280;61199;47.526;8.538;2022-12-07T02:03:48;96501.63;;;4.40;76.26
73024;BME280;61199;47.526;8.538;2022-12-07T02:06:19;96499.97;;;4.39;76.21
73024;BME280;61199;47.526;8.538;2022-12-07T02:08:47;96499.75;;;4.42;76.89
73024;BME280;61199;47.526;8.538;2022-12-07T02:11:13;96499.56;;;4.45;76.15
73024;BME280;61199;47.526;8.538;2022-12-07T02:13:40;96496.38;;;4.54;75.92
73024;BME280;61199;47.526;8.538;2022-12-07T02:19:20;96502.22;;;4.03;77.58
73024;BME280;61199;47.526;8.538;2022-12-07T02:30:10;96493.47;;;4.32;77.48
73024;BME280;61199;47.526;8.538;2022-12-07T02:35:22;96494.69;;;4.67;75.53
73024;BME280;61199;47.526;8.538;2022-12-07T02:40:40;96490.50;;;4.91;74.88
73024;BME280;61199;47.526;8.538;2022-12-07T02:43:14;96483.91;;;5.00;74.29
73024;BME280;61199;47.526;8.538;2022-12-07T02:45:44;96485.63;;;5.13;74.29
73024;BME280;61199;47.526;8.538;2022-12-07T02:48:14;96490.94;;;5.24;73.45
73024;BME280;61199;47.526;8.538;2022-12-07T02:50:49;96491.91;;;5.09;73.85
73024;BME280;61199;47.526;8.538;2022-12-07T02:53:38;96485.78;;;5.10;73.71
73024;BME280;61199;47.526;8.538;2022-12-07T02:58:50;96487.44;;;4.72;75.41
73024;BME280;61199;47.526;8.538;2022-12-07T03:06:50;96470.81;;;4.62;76.19
73024;BME280;61199;47.526;8.538;2022-12-07T03:09:32;96470.28;;;4.57;76.20
73024;BME280;61199;47.526;8.538;2022-12-07T03:12:11;96469.03;;;4.36;76.78
73024;BME280;61199;47.526;8.538;2022-12-07T03:14:52;96472.38;;;4.38;76.91
73024;BME280;61199;47.526;8.538;2022-12-07T03:17:25;96469.50;;;4.69;76.45
73024;BME280;61199;47.526;8.538;2022-12-07T03:19:56;96472.44;;;4.77;75.84
73024;BME280;61199;47.526;8.538;2022-12-07T03:22:25;96480.06;;;4.66;76.09
73024;BME280;61199;47.526;8.538;2022-12-07T03:24:58;96475.25;;;4.87;75.54
73024;BME280;61199;47.526;8.538;2022-12-07T03:27:31;96466.25;;;5.05;74.62
73024;BME280;61199;47.526;8.538;2022-12-07T03:30:02;96467.31;;;5.02;74.41
73024;BME280;61199;47.526;8.538;2022-12-07T03:32:37;96470.56;;;4.79;75.38
73024;BME280;61199;47.526;8.538;2022-12-07T03:35:17;96472.66;;;4.60;75.88
73024;BME280;61199;47.526;8.538;2022-12-07T03:37:51;96477.59;;;4.51;76.40
73024;BME280;61199;47.526;8.538;2022-12-07T03:40:33;96483.19;;;4.45;77.09
73024;BME280;61199;47.526;8.538;2022-12-07T03:43:02;96482.97;;;4.48;76.74
73024;BME280;61199;47.526;8.538;2022-12-07T03:45:41;96477.56;;;4.65;76.41
73024;BME280;61199;47.526;8.538;2022-12-07T03:48:21;96472.59;;;4.74;76.34
73024;BME280;61199;47.526;8.538;2022-12-07T03:50:50;96475.88;;;4.90;75.89
73024;BME280;61199;47.526;8.538;2022-12-07T03:55:57;96470.97;;;5.12;74.76
73024;BME280;61199;47.526;8.538;2022-12-07T03:58:24;96469.09;;;5.14;74.30
73024;BME280;61199;47.526;8.538;2022-12-07T04:00:51;96472.84;;;5.23;74.09
73024;BME280;61199;47.526;8.538;2022-12-07T04:03:18;96473.66;;;5.11;73.55
73024;BME280;61199;47.526;8.538;2022-12-07T04:05:44;96471.53;;;4.91;74.91
73024;BME280;61199;47.526;8.538;2022-12-07T04:08:11;96469.03;;;4.89;75.31
73024;BME280;61199;47.526;8.538;2022-12-07T04:10:38;96468.88;;;5.05;74.49
73024;BME280;61199;47.526;8.538;2022-12-07T04:13:04;96472.09;;;5.08;74.29
73024;BME280;61199;47.526;8.538;2022-12-07T04:15:31;96466.56;;;5.00;74.44
73024;BME280;61199;47.526;8.538;2022-12-07T04:17:57;96463.88;;;5.02;74.59
73024;BME280;61199;47.526;8.538;2022-12-07T04:20:23;96463.19;;;5.12;73.96
73024;BME280;61199;47.526;8.538;2022-12-07T04:22:50;96459.47;;;5.29;74.06
73024;BME280;61199;47.526;8.538;2022-12-07T04:25:16;96465.41;;;5.43;73.44
73024;BME280;61199;47.526;8.538;2022-12-07T04:27:43;96463.13;;;5.51;72.92
73024;BME280;61199;47.526;8.538;2022-12-07T04:30:09;96461.03;;;5.68;72.24
73024;BME280;61199;47.526;8.538;2022-12-07T04:32:36;96462.38;;;5.74;71.72
73024;BME280;61199;47.526;8.538;2022-12-07T04:35:03;96468.72;;;5.57;72.08
73024;BME280;61199;47.526;8.538;2022-12-07T04:37:29;96459.81;;;5.49;72.45
73024;BME280;61199;47.526;8.538;2022-12-07T04:39:56;96460.63;;;5.50;72.86
73024;BME280;61199;47.526;8.538;2022-12-07T04:42:22;96467.06;;;5.44;72.67
73024;BME280;61199;47.526;8.538;2022-12-07T04:44:48;96459.78;;;5.37;73.05
73024;BME280;61199;47.526;8.538;2022-12-07T04:47:15;96460.00;;;5.21;73.72
73024;BME280;61199;47.526;8.538;2022-12-07T04:49:41;96463.88;;;5.02;74.50
73024;BME280;61199;47.526;8.538;2022-12-07T04:52:08;96463.09;;;5.26;74.33
73024;BME280;61199;47.526;8.538;2022-12-07T04:54:35;96470.19;;;5.49;73.47
73024;BME280;61199;47.526;8.538;2022-12-07T04:57:01;96470.22;;;5.62;72.93
73024;BME280;61199;47.526;8.538;2022-12-07T04:59:27;96468.19;;;5.65;72.54
73024;BME280;61199;47.526;8.538;2022-12-07T05:01:54;96473.72;;;5.73;72.44
73024;BME280;61199;47.526;8.538;2022-12-07T05:04:20;96468.66;;;5.71;72.29
73024;BME280;61199;47.526;8.538;2022-12-07T05:06:46;96473.31;;;5.66;72.44
73024;BME280;61199;47.526;8.538;2022-12-07T05:09:13;96466.13;;;5.70;72.25
73024;BME280;61199;47.526;8.538;2022-12-07T05:11:39;96469.50;;;5.84;72.27
73024;BME280;61199;47.526;8.538;2022-12-07T05:16:35;96474.16;;;5.67;72.16
73024;BME280;61199;47.526;8.538;2022-12-07T05:19:05;96463.94;;;5.64;72.15
73024;BME280;61199;47.526;8.538;2022-12-07T05:21:34;96463.03;;;5.40;73.42
73024;BME280;61199;47.526;8.538;2022-12-07T05:24:03;96464.97;;;5.24;74.04
73024;BME280;61199;47.526;8.538;2022-12-07T05:26:31;96456.97;;;5.27;73.75
73024;BME280;61199;47.526;8.538;2022-12-07T05:28:58;96462.75;;;5.18;74.28
73024;BME280;61199;47.526;8.538;2022-12-07T05:31:25;96461.84;;;5.32;74.37
73024;BME280;61199;47.526;8.538;2022-12-07T05:33:51;96463.13;;;5.51;73.52
73024;BME280;61199;47.526;8.538;2022-12-07T05:36:18;96460.84;;;5.59;73.05
73024;BME280;61199;47.526;8.538;2022-12-07T05:38:44;96460.41;;;5.65;73.33
73024;BME280;61199;47.526;8.538;2022-12-07T05:41:14;96470.00;;;5.77;72.83
73024;BME280;61199;47.526;8.538;2022-12-07T05:43:59;96467.81;;;5.71;73.15
73024;BME280;61199;47.526;8.538;2022-12-07T05:46:26;96471.63;;;5.53;73.22
73024;BME280;61199;47.526;8.538;2022-12-07T05:48:52;96467.91;;;5.45;73.83
73024;BME280;61199;47.526;8.538;2022-12-07T05:51:19;96468.19;;;5.28;74.45
73024;BME280;61199;47.526;8.538;2022-12-07T05:53:45;96462.88;;;5.29;74.78
73024;BME280;61199;47.526;8.538;2022-12-07T05:56:12;96462.47;;;5.35;75.04
73024;BME280;61199;47.526;8.538;2022-12-07T05:58:38;96464.56;;;5.30;74.89
73024;BME280;61199;47.526;8.538;2022-12-07T06:01:23;96465.91;;;4.84;76.62
73024;BME280;61199;47.526;8.538;2022-12-07T06:03:49;96473.75;;;4.70;78.04
73024;BME280;61199;47.526;8.538;2022-12-07T06:06:16;96471.31;;;4.94;77.28
73024;BME280;61199;47.526;8.538;2022-12-07T06:08:42;96471.69;;;4.75;77.08
73024;BME280;61199;47.526;8.538;2022-12-07T06:11:08;96473.63;;;4.45;78.23
73024;BME280;61199;47.526;8.538;2022-12-07T06:13:54;96483.84;;;4.34;79.50
73024;BME280;61199;47.526;8.538;2022-12-07T06:16:20;96476.84;;;4.22;79.53
73024;BME280;61199;47.526;8.538;2022-12-07T06:18:46;96486.81;;;4.28;80.23
73024;BME280;61199;47.526;8.538;2022-12-07T06:21:13;96484.63;;;4.49;79.71
73024;BME280;61199;47.526;8.538;2022-12-07T06:23:40;96478.59;;;4.62;78.96
73024;BME280;61199;47.526;8.538;2022-12-07T06:26:06;96485.75;;;4.85;78.40
73024;BME280;61199;47.526;8.538;2022-12-07T06:28:33;96483.91;;;4.73;78.37
73024;BME280;61199;47.526;8.538;2022-12-07T06:31:00;96484.94;;;4.97;78.01
73024;BME280;61199;47.526;8.538;2022-12-07T06:33:27;96485.25;;;4.93;77.73
73024;BME280;61199;47.526;8.538;2022-12-07T06:35:54;96490.22;;;4.96;77.57
73024;BME280;61199;47.526;8.538;2022-12-07T06:38:21;96485.50;;;5.15;76.98
73024;BME280;61199;47.526;8.538;2022-12-07T06:40:47;96479.06;;;5.20;76.99
73024;BME280;61199;47.526;8.538;2022-12-07T06:43:14;96482.19;;;5.25;76.46
73024;BME280;61199;47.526;8.538;2022-12-07T06:45:41;96486.41;;;5.40;76.36
73024;BME280;61199;47.526;8.538;2022-12-07T06:48:08;96478.72;;;5.51;75.74
73024;BME280;61199;47.526;8.538;2022-12-07T06:50:34;96477.47;;;5.57;75.71
73024;BME280;61199;47.526;8.538;2022-12-07T06:53:01;96476.00;;;5.65;75.34
73024;BME280;61199;47.526;8.538;2022-12-07T06:55:27;96482.13;;;5.39;75.87
73024;BME280;61199;47.526;8.538;2022-12-07T06:57:53;96481.75;;;5.06;76.68
73024;BME280;61199;47.526;8.538;2022-12-07T07:00:20;96480.25;;;4.90;77.50
73024;BME280;61199;47.526;8.538;2022-12-07T07:02:47;96485.75;;;4.85;78.49
73024;BME280;61199;47.526;8.538;2022-12-07T07:05:14;96484.97;;;4.83;78.51
73024;BME280;61199;47.526;8.538;2022-12-07T07:07:41;96482.56;;;4.94;78.59
73024;BME280;61199;47.526;8.538;2022-12-07T07:10:28;96485.19;;;4.80;78.42
73024;BME280;61199;47.526;8.538;2022-12-07T07:12:54;96488.22;;;4.60;79.62
73024;BME280;61199;47.526;8.538;2022-12-07T07:15:23;96482.47;;;4.69;79.36
73024;BME280;61199;47.526;8.538;2022-12-07T07:17:49;96490.44;;;4.66;79.54
73024;BME280;61199;47.526;8.538;2022-12-07T07:20:16;96483.44;;;4.81;79.26
73024;BME280;61199;47.526;8.538;2022-12-07T07:22:42;96488.03;;;4.63;79.44
73024;BME280;61199;47.526;8.538;2022-12-07T07:25:08;96486.06;;;4.67;80.11
73024;BME280;61199;47.526;8.538;2022-12-07T07:27:35;96486.91;;;4.94;79.06
73024;BME280;61199;47.526;8.538;2022-12-07T07:30:02;96487.16;;;5.16;78.38
73024;BME280;61199;47.526;8.538;2022-12-07T07:32:29;96479.94;;;5.33;78.03
73024;BME280;61199;47.526;8.538;2022-12-07T07:34:55;96488.22;;;5.38;77.51
73024;BME280;61199;47.526;8.538;2022-12-07T07:37:22;96490.72;;;5.27;77.34
73024;BME280;61199;47.526;8.538;2022-12-07T07:39:49;96486.56;;;5.37;77.37
73024;BME280;61199;47.526;8.538;2022-12-07T07:42:15;96487.63;;;5.47;77.11
73024;BME280;61199;47.526;8.538;2022-12-07T07:44:42;96493.25;;;5.54;76.41
73024;BME280;61199;47.526;8.538;2022-12-07T07:47:08;96498.88;;;5.60;76.29
73024;BME280;61199;47.526;8.538;2022-12-07T07:49:34;96502.44;;;5.71;75.93
73024;BME280;61199;47.526;8.538;2022-12-07T07:52:01;96500.13;;;5.67;75.64
73024;BME280;61199;47.526;8.538;2022-12-07T07:54:30;96500.84;;;5.69;75.71
73024;BME280;61199;47.526;8.538;2022-12-07T07:56:56;96502.13;;;5.25;76.19
73024;BME280;61199;47.526;8.538;2022-12-07T07:59:23;96511.09;;;4.94;77.67
73024;BME280;61199;47.526;8.538;2022-12-07T08:01:49;96507.44;;;4.84;77.76
73024;BME280;61199;47.526;8.538;2022-12-07T08:04:15;96504.56;;;4.75;78.46
73024;BME280;61199;47.526;8.538;2022-12-07T08:06:44;96510.91;;;4.71;78.93
73024;BME280;61199;47.526;8.538;2022-12-07T08:09:12;96506.19;;;4.90;78.31
73024;BME280;61199;47.526;8.538;2022-12-07T08:11:38;96512.09;;;4.65;78.41
73024;BME280;61199;47.526;8.538;2022-12-07T08:14:06;96510.81;;;4.99;78.16
73024;BME280;61199;47.526;8.538;2022-12-07T08:16:33;96508.72;;;5.04;77.78
73024;BME280;61199;47.526;8.538;2022-12-07T08:18:59;96512.44;;;5.26;77.01
73024;BME280;61199;47.526;8.538;2022-12-07T08:21:26;96516.31;;;5.46;76.35
73024;BME280;61199;47.526;8.538;2022-12-07T08:23:52;96516.53;;;5.55;76.08
73024;BME280;61199;47.526;8.538;2022-12-07T08:26:18;96514.06;;;5.66;75.89
73024;BME280;61199;47.526;8.538;2022-12-07T08:28:45;96519.66;;;5.72;75.41
73024;BME280;61199;47.526;8.538;2022-12-07T08:31:15;96519.25;;;5.78;74.57
73024;BME280;61199;47.526;8.538;2022-12-07T08:33:42;96513.44;;;5.75;74.90
73024;BME280;61199;47.526;8.538;2022-12-07T08:36:10;96516.53;;;5.67;75.15
73024;BME280;61199;47.526;8.538;2022-12-07T08:38:38;96506.78;;;5.71;75.06
73024;BME280;61199;47.526;8.538;2022-12-07T08:41:05;96510.94;;;5.73;75.13
73024;BME280;61199;47.526;8.538;2022-12-07T08:43:33;96513.22;;;5.78;75.07
73024;BME280;61199;47.526;8.538;2022-12-07T08:46:04;96515.50;;;5.70;75.15
73024;BME280;61199;47.526;8.538;2022-12-07T08:48:33;96511.16;;;5.70;75.06
73024;BME280;61199;47.526;8.538;2022-12-07T08:51:01;96515.41;;;5.59;75.20
73024;BME280;61199;47.526;8.538;2022-12-07T08:53:29;96517.13;;;5.46;75.87
73024;BME280;61199;47.526;8.538;2022-12-07T08:55:56;96516.47;;;5.18;76.38
73024;BME280;61199;47.526;8.538;2022-12-07T08:58:24;96523.78;;;5.38;76.32
73024;BME280;61199;47.526;8.538;2022-12-07T09:00:50;96522.03;;;5.51;75.97
73024;BME280;61199;47.526;8.538;2022-12-07T09:03:17;96527.09;;;5.40;75.85
73024;BME280;61199;47.526;8.538;2022-12-07T09:05:43;96522.75;;;5.40;76.04
73024;BME280;61199;47.526;8.538;2022-12-07T09:08:10;96519.00;;;5.44;76.21
73024;BME280;61199;47.526;8.538;2022-12-07T09:10:36;96524.50;;;5.40;76.26
73024;BME280;61199;47.526;8.538;2022-12-07T09:13:03;96525.50;;;5.63;75.74
73024;BME280;61199;47.526;8.538;2022-12-07T09:15:30;96524.28;;;5.81;75.13
73024;BME280;61199;47.526;8.538;2022-12-07T09:17:56;96533.63;;;5.84;75.00
73024;BME280;61199;47.526;8.538;2022-12-07T09:20:22;96530.88;;;5.48;76.02
73024;BME280;61199;47.526;8.538;2022-12-07T09:22:53;96536.69;;;5.13;76.68
73024;BME280;61199;47.526;8.538;2022-12-07T09:25:20;96533.34;;;5.11;77.50
73024;BME280;61199;47.526;8.538;2022-12-07T09:27:46;96530.97;;;5.08;77.81
73024;BME280;61199;47.526;8.538;2022-12-07T09:30:12;96536.19;;;5.20;77.76
73024;BME280;61199;47.526;8.538;2022-12-07T09:32:41;96543.66;;;5.25;77.39
73024;BME280;61199;47.526;8.538;2022-12-07T09:35:07;96538.84;;;5.45;77.46
73024;BME280;61199;47.526;8.538;2022-12-07T09:37:34;96541.88;;;5.64;76.57
73024;BME280;61199;47.526;8.538;2022-12-07T09:40:04;96543.47;;;5.66;76.53
73024;BME280;61199;47.526;8.538;2022-12-07T09:42:35;96534.53;;;5.58;76.33
73024;BME280;61199;47.526;8.538;2022-12-07T09:45:06;96531.94;;;5.58;76.46
73024;BME280;61199;47.526;8.538;2022-12-07T09:47:33;96537.63;;;5.63;76.38
73024;BME280;61199;47.526;8.538;2022-12-07T09:50:13;96532.53;;;5.74;76.20
73024;BME280;61199;47.526;8.538;2022-12-07T09:52:41;96534.06;;;5.90;74.94
73024;BME280;61199;47.526;8.538;2022-12-07T09:55:11;96536.75;;;5.89;74.86
73024;BME280;61199;47.526;8.538;2022-12-07T09:57:38;96525.72;;;5.98;74.33
73024;BME280;61199;47.526;8.538;2022-12-07T10:00:14;96528.97;;;6.01;74.28
73024;BME280;61199;47.526;8.538;2022-12-07T10:02:56;96526.53;;;6.11;73.86
73024;BME280;61199;47.526;8.538;2022-12-07T10:05:36;96515.97;;;6.01;74.14
73024;BME280;61199;47.526;8.538;2022-12-07T10:08:04;96516.22;;;5.72;74.74
73024;BME280;61199;47.526;8.538;2022-12-07T10:10:32;96511.03;;;5.72;75.25
73024;BME280;61199;47.526;8.538;2022-12-07T10:13:07;96505.75;;;5.73;75.06
73024;BME280;61199;47.526;8.538;2022-12-07T10:15:49;96503.06;;;5.75;74.97
73024;BME280;61199;47.526;8.538;2022-12-07T10:18:34;96498.28;;;5.81;74.32
73024;BME280;61199;47.526;8.538;2022-12-07T10:21:24;96501.63;;;5.96;74.38
73024;BME280;61199;47.526;8.538;2022-12-07T10:26:49;96499.28;;;6.29;73.14
73024;BME280;61199;47.526;8.538;2022-12-07T10:29:20;96497.41;;;6.31;72.80
73024;BME280;61199;47.526;8.538;2022-12-07T10:31:53;96490.56;;;6.30;72.97
73024;BME280;61199;47.526;8.538;2022-12-07T10:34:26;96496.06;;;6.25;72.32
73024;BME280;61199;47.526;8.538;2022-12-07T10:39:53;96493.88;;;6.32;72.97
73024;BME280;61199;47.526;8.538;2022-12-07T10:42:23;96480.88;;;6.32;73.18
73024;BME280;61199;47.526;8.538;2022-12-07T10:47:45;96475.31;;;6.49;71.90
73024;BME280;61199;47.526;8.538;2022-12-07T10:50:38;96475.03;;;6.41;72.25
73024;BME280;61199;47.526;8.538;2022-12-07T10:56:05;96466.16;;;6.43;72.32
73024;BME280;61199;47.526;8.538;2022-12-07T10:58:45;96457.50;;;6.55;71.35
73024;BME280;61199;47.526;8.538;2022-12-07T11:01:35;96453.84;;;6.58;70.61
73024;BME280;61199;47.526;8.538;2022-12-07T11:07:12;96444.88;;;6.62;70.24
73024;BME280;61199;47.526;8.538;2022-12-07T11:10:11;96442.38;;;6.60;70.38
73024;BME280;61199;47.526;8.538;2022-12-07T11:15:47;96434.03;;;6.68;69.06
73024;BME280;61199;47.526;8.538;2022-12-07T11:18:26;96439.66;;;6.62;68.85
73024;BME280;61199;47.526;8.538;2022-12-07T11:21:07;96436.53;;;6.57;68.93
73024;BME280;61199;47.526;8.538;2022-12-07T11:29:44;96422.28;;;6.86;69.09
73024;BME280;61199;47.526;8.538;2022-12-07T11:32:39;96419.41;;;6.78;68.60
73024;BME280;61199;47.526;8.538;2022-12-07T11:35:24;96420.69;;;6.72;67.90
73024;BME280;61199;47.526;8.538;2022-12-07T11:37:59;96417.84;;;6.75;67.60
73024;BME280;61199;47.526;8.538;2022-12-07T11:40:33;96411.13;;;6.84;67.68
73024;BME280;61199;47.526;8.538;2022-12-07T11:43:27;96409.06;;;7.00;67.25
73024;BME280;61199;47.526;8.538;2022-12-07T11:46:00;96400.09;;;7.04;67.27
73024;BME280;61199;47.526;8.538;2022-12-07T11:48:33;96406.03;;;7.06;67.05
73024;BME280;61199;47.526;8.538;2022-12-07T11:51:02;96407.94;;;7.15;66.48
73024;BME280;61199;47.526;8.538;2022-12-07T11:53:38;96397.38;;;7.16;66.14
73024;BME280;61199;47.526;8.538;2022-12-07T11:56:08;96397.53;;;7.15;66.04
73024;BME280;61199;47.526;8.538;2022-12-07T12:03:49;96384.75;;;7.23;65.15
73024;BME280;61199;47.526;8.538;2022-12-07T12:06:20;96386.63;;;7.21;64.79
73024;BME280;61199;47.526;8.538;2022-12-07T12:09:11;96389.13;;;7.22;64.38
73024;BME280;61199;47.526;8.538;2022-12-07T12:18:04;96374.59;;;7.42;63.69
73024;BME280;61199;47.526;8.538;2022-12-07T12:20:54;96366.78;;;7.53;62.92
73024;BME280;61199;47.526;8.538;2022-12-07T12:23:44;96370.34;;;7.52;62.30
73024;BME280;61199;47.526;8.538;2022-12-07T12:26:18;96360.88;;;7.40;62.49
73024;BME280;61199;47.526;8.538;2022-12-07T12:33:57;96360.16;;;7.60;62.05
73024;BME280;61199;47.526;8.538;2022-12-07T12:39:15;96353.06;;;7.51;62.28
73024;BME280;61199;47.526;8.538;2022-12-07T12:46:55;96355.41;;;7.65;61.59
73024;BME280;61199;47.526;8.538;2022-12-07T12:54:58;96348.69;;;7.73;60.74
73024;BME280;61199;47.526;8.538;2022-12-07T12:57:32;96349.97;;;7.68;60.31
73024;BME280;61199;47.526;8.538;2022-12-07T13:00:00;96344.88;;;7.77;60.00
73024;BME280;61199;47.526;8.538;2022-12-07T13:02:31;96350.09;;;7.77;59.83
73024;BME280;61199;47.526;8.538;2022-12-07T13:05:03;96347.13;;;7.71;59.82
73024;BME280;61199;47.526;8.538;2022-12-07T13:15:55;96330.78;;;7.47;61.67
73024;BME280;61199;47.526;8.538;2022-12-07T13:18:41;96323.09;;;7.56;61.44
73024;BME280;61199;47.526;8.538;2022-12-07T13:28:51;96314.44;;;7.78;60.75
73024;BME280;61199;47.526;8.538;2022-12-07T13:31:34;96308.72;;;7.73;59.73
73024;BME280;61199;47.526;8.538;2022-12-07T13:34:02;96309.44;;;7.75;59.97
73024;BME280;61199;47.526;8.538;2022-12-07T13:36:32;96311.09;;;7.76;60.01
73024;BME280;61199;47.526;8.538;2022-12-07T13:39:34;96315.63;;;7.52;59.53
73024;BME280;61199;47.526;8.538;2022-12-07T13:42:14;96318.69;;;7.46;59.92
73024;BME280;61199;47.526;8.538;2022-12-07T13:44:44;96314.69;;;7.31;60.50
73024;BME280;61199;47.526;8.538;2022-12-07T13:49:51;96304.50;;;7.50;59.96
73024;BME280;61199;47.526;8.538;2022-12-07T13:52:27;96305.22;;;7.41;60.31
73024;BME280;61199;47.526;8.538;2022-12-07T13:57:28;96300.22;;;7.60;59.62
73024;BME280;61199;47.526;8.538;2022-12-07T13:59:55;96301.63;;;7.64;59.89
73024;BME280;61199;47.526;8.538;2022-12-07T14:02:31;96294.53;;;7.77;59.49
73024;BME280;61199;47.526;8.538;2022-12-07T14:10:41;96289.31;;;7.77;59.63
73024;BME280;61199;47.526;8.538;2022-12-07T14:13:30;96283.16;;;7.78;59.67
73024;BME280;61199;47.526;8.538;2022-12-07T14:15:58;96282.91;;;7.81;59.45
73024;BME280;61199;47.526;8.538;2022-12-07T14:18:29;96287.84;;;7.84;58.86
73024;BME280;61199;47.526;8.538;2022-12-07T14:23:30;96288.34;;;7.78;59.29
73024;BME280;61199;47.526;8.538;2022-12-07T14:26:12;96281.47;;;7.88;59.24
73024;BME280;61199;47.526;8.538;2022-12-07T14:28:41;96285.25;;;7.95;58.73
73024;BME280;61199;47.526;8.538;2022-12-07T14:31:13;96280.47;;;8.00;58.70
73024;BME280;61199;47.526;8.538;2022-12-07T14:33:49;96280.56;;;7.67;58.48
73024;BME280;61199;47.526;8.538;2022-12-07T14:36:16;96283.88;;;7.25;59.97
73024;BME280;61199;47.526;8.538;2022-12-07T14:38:42;96283.28;;;7.54;59.26
73024;BME280;61199;47.526;8.538;2022-12-07T14:41:17;96283.28;;;7.65;58.85
73024;BME280;61199;47.526;8.538;2022-12-07T14:44:11;96276.28;;;7.55;59.75
73024;BME280;61199;47.526;8.538;2022-12-07T14:46:58;96285.47;;;6.82;61.85
73024;BME280;61199;47.526;8.538;2022-12-07T14:49:44;96286.22;;;6.95;61.35
73024;BME280;61199;47.526;8.538;2022-12-07T14:52:17;96282.31;;;7.00;60.82
73024;BME280;61199;47.526;8.538;2022-12-07T14:55:13;96287.56;;;6.66;61.48
73024;BME280;61199;47.526;8.538;2022-12-07T14:57:39;96294.47;;;6.78;61.88
73024;BME280;61199;47.526;8.538;2022-12-07T15:00:06;96282.75;;;6.72;62.24
73024;BME280;61199;47.526;8.538;2022-12-07T15:02:33;96280.28;;;6.82;62.31
73024;BME280;61199;47.526;8.538;2022-12-07T15:04:59;96290.34;;;6.97;62.46
73024;BME280;61199;47.526;8.538;2022-12-07T15:07:26;96280.06;;;6.96;61.80
73024;BME280;61199;47.526;8.538;2022-12-07T15:09:53;96287.19;;;6.94;61.86
73024;BME280;61199;47.526;8.538;2022-12-07T15:12:19;96285.50;;;6.93;61.79
73024;BME280;61199;47.526;8.538;2022-12-07T15:14:45;96288.09;;;6.93;61.72
73024;BME280;61199;47.526;8.538;2022-12-07T15:17:12;96283.94;;;6.79;61.94
73024;BME280;61199;47.526;8.538;2022-12-07T15:19:53;96285.81;;;6.66;62.03
73024;BME280;61199;47.526;8.538;2022-12-07T15:22:19;96291.88;;;6.78;62.14